Time;durP1;ratioP1;P1;durP2;ratioP2;P2;SDS_P1;SDS_P2;PMS_P1;PMS_P2;Temp;Humidity;BMP_temperature;BMP_pressure;BME280_temperature;BME280_humidity;BME280_pressure;Samples;Min_cycle;Max_cycle;Signal;HPM_P1;HPM_P2
2022/07/14 00:00:31;;;;;;;1.83;0.70;;;;;;;20.64;100.00;101655.22;2073097;28;20226;-70
2022/07/14 00:01:31;;;;;;;5.10;0.97;;;;;;;20.20;100.00;101589.38;2073138;28;20193;-70
2022/07/14 00:02:32;;;;;;;2.40;0.90;;;;;;;20.61;100.00;101650.50;2073126;28;20204;-70
2022/07/14 00:03:33;;;;;;;2.97;0.80;;;;;;;20.06;100.00;101584.44;2073110;28;20170;-70
2022/07/14 00:04:34;;;;;;;2.97;0.73;;;;;;;20.61;100.00;101651.31;2072158;28;20420;-70
2022/07/14 00:05:35;;;;;;;1.83;0.90;;;;;;;20.56;100.00;101653.97;2065551;28;20457;-70
2022/07/14 00:06:36;;;;;;;3.63;0.97;;;;;;;20.59;100.00;101658.66;2072610;28;20444;-70
2022/07/14 00:07:36;;;;;;;3.90;1.10;;;;;;;20.57;100.00;101659.16;2071537;28;20190;-70
2022/07/14 00:08:37;;;;;;;3.47;1.00;;;;;;;20.38;100.00;101649.22;2073208;28;20197;-70
2022/07/14 00:09:37;;;;;;;2.40;1.10;;;;;;;20.52;100.00;101661.84;2073043;28;20275;-70
2022/07/14 00:10:38;;;;;;;6.03;1.30;;;;;;;20.52;100.00;101662.59;2073008;28;20225;-70
2022/07/14 00:11:39;;;;;;;4.47;0.93;;;;;;;20.49;100.00;101660.75;2070607;28;20644;-70
2022/07/14 00:12:39;;;;;;;5.20;1.50;;;;;;;20.51;100.00;101660.25;2066193;28;20175;-70
2022/07/14 00:13:39;;;;;;;3.07;1.30;;;;;;;20.21;100.00;101614.25;2072862;28;20667;-70
2022/07/14 00:14:40;;;;;;;3.80;0.97;;;;;;;20.52;100.00;101659.03;2073007;28;20174;-70
2022/07/14 00:15:41;;;;;;;9.20;1.50;;;;;;;20.50;100.00;101659.50;2073246;28;20201;-70
2022/07/14 00:16:41;;;;;;;9.27;1.77;;;;;;;20.52;100.00;101656.97;2073085;28;20702;-70
2022/07/14 00:17:42;;;;;;;7.87;1.80;;;;;;;20.48;100.00;101659.22;2071507;28;20193;-70
2022/07/14 00:18:45;;;;;;;2.23;0.90;;;;;;;20.47;100.00;101659.69;2069983;28;20188;-70
2022/07/14 00:19:45;;;;;;;8.23;1.60;;;;;;;20.48;100.00;101656.38;2072375;28;20184;-70
2022/07/14 00:20:46;;;;;;;7.00;1.60;;;;;;;19.87;100.00;101566.03;2073304;28;20420;-70
2022/07/14 00:21:46;;;;;;;5.63;1.20;;;;;;;20.45;100.00;101653.72;2073023;28;20189;-70
2022/07/14 00:22:47;;;;;;;3.60;0.90;;;;;;;20.43;100.00;101653.44;2072979;28;20208;-70
2022/07/14 00:23:48;;;;;;;7.90;1.30;;;;;;;20.37;100.00;101649.69;2072427;28;20190;-70
2022/07/14 00:24:49;;;;;;;3.30;1.00;;;;;;;19.23;100.00;101463.41;2072813;28;20190;-70
2022/07/14 00:25:50;;;;;;;3.60;0.93;;;;;;;20.32;100.00;101653.94;2072111;28;20432;-70
2022/07/14 00:26:51;;;;;;;4.03;1.03;;;;;;;20.31;100.00;101657.25;2071938;28;20512;-70
2022/07/14 00:27:52;;;;;;;3.07;0.80;;;;;;;20.29;100.00;101660.53;2065580;28;20927;-70
2022/07/14 00:28:53;;;;;;;3.57;0.77;;;;;;;19.56;100.00;101541.00;2071748;28;20656;-70
2022/07/14 00:29:53;;;;;;;2.30;0.90;;;;;;;20.28;100.00;101663.81;2065323;28;20863;-70
2022/07/14 00:30:54;;;;;;;4.97;1.00;;;;;;;20.27;100.00;101654.56;2064649;28;20342;-70
2022/07/14 00:31:54;;;;;;;3.03;1.00;;;;;;;20.24;100.00;101655.53;2071743;28;20195;-70
2022/07/14 00:32:55;;;;;;;2.17;0.80;;;;;;;20.25;100.00;101653.47;2072935;28;20197;-70
2022/07/14 00:33:55;;;;;;;1.73;0.70;;;;;;;20.24;100.00;101651.94;2072579;28;20224;-70
2022/07/14 00:34:59;;;;;;;1.60;0.87;;;;;;;20.04;100.00;101644.00;2072652;28;20280;-70
2022/07/14 00:36:00;;;;;;;2.67;0.90;;;;;;;19.80;100.00;101600.91;2071705;28;20177;-70
2022/07/14 00:37:00;;;;;;;3.80;1.10;;;;;;;20.18;100.00;101662.28;2071769;28;20843;-70
2022/07/14 00:38:03;;;;;;;2.93;0.90;;;;;;;20.13;100.00;101660.09;2072561;28;20446;-70
2022/07/14 00:39:04;;;;;;;2.73;0.80;;;;;;;19.98;100.00;101631.81;2072581;28;20227;-70
2022/07/14 00:40:06;;;;;;;4.13;0.83;;;;;;;19.17;100.00;101505.41;2065084;28;20448;-70
2022/07/14 00:41:06;;;;;;;3.10;0.90;;;;;;;20.09;100.00;101659.47;2064929;28;20220;-70
2022/07/14 00:42:07;;;;;;;2.03;0.80;;;;;;;20.06;100.00;101651.97;2070650;28;20455;-70
2022/07/14 00:43:07;;;;;;;2.10;0.80;;;;;;;19.86;100.00;101626.38;2072947;28;20201;-70
2022/07/14 00:44:08;;;;;;;2.80;1.00;;;;;;;20.02;100.00;101652.13;2072272;28;20192;-70
2022/07/14 00:45:10;;;;;;;1.53;0.97;;;;;;;19.34;100.00;101550.88;2072822;28;20259;-70
2022/07/14 00:46:11;;;;;;;3.80;1.07;;;;;;;19.98;100.00;101653.53;2072136;28;20227;-70
2022/07/14 00:47:12;;;;;;;1.90;0.80;;;;;;;19.95;100.00;101660.88;2071582;28;20460;-70
2022/07/14 00:48:12;;;;;;;2.87;0.70;;;;;;;19.82;100.00;101637.81;2073429;28;20180;-70
2022/07/14 00:49:13;;;;;;;4.07;0.87;;;;;;;19.97;100.00;101655.59;2072594;28;20689;-70
2022/07/14 00:50:16;;;;;;;2.40;0.87;;;;;;;19.96;100.00;101662.44;2072179;28;20262;-70
2022/07/14 00:51:16;;;;;;;3.43;0.93;;;;;;;19.93;100.00;101660.59;2072119;28;20230;-70
2022/07/14 00:52:17;;;;;;;1.90;0.80;;;;;;;19.90;100.00;101664.34;2072316;28;20457;-70
2022/07/14 00:53:17;;;;;;;4.17;1.03;;;;;;;19.86;100.00;101660.91;2068500;28;20203;-70
2022/07/14 00:54:27;;;;;;;2.00;0.80;;;;;;;19.88;100.00;101663.25;2072120;28;20186;-70
2022/07/14 00:55:28;;;;;;;3.20;0.90;;;;;;;19.86;100.00;101651.69;2072423;28;20713;-70
2022/07/14 00:56:28;;;;;;;2.43;1.00;;;;;;;19.71;100.00;101629.03;2072691;28;20778;-70
2022/07/14 00:57:29;;;;;;;0.87;0.70;;;;;;;19.90;100.00;101663.56;2071657;28;20251;-70
2022/07/14 00:58:29;;;;;;;3.03;0.80;;;;;;;18.67;100.00;101463.16;2073297;28;20188;-70
2022/07/14 00:59:30;;;;;;;2.10;1.03;;;;;;;19.94;100.00;101658.53;2072899;28;20181;-70
2022/07/14 01:00:31;;;;;;;2.00;0.80;;;;;;;19.74;100.00;101628.13;2071852;28;20202;-70
2022/07/14 01:01:31;;;;;;;2.67;0.90;;;;;;;19.98;100.00;101659.97;2072556;28;20193;-70
2022/07/14 01:02:32;;;;;;;4.33;0.97;;;;;;;19.98;100.00;101653.53;2072886;28;20232;-70
2022/07/14 01:03:33;;;;;;;1.97;0.80;;;;;;;19.95;100.00;101654.50;2072254;28;20573;-70
2022/07/14 01:04:33;;;;;;;2.13;0.87;;;;;;;19.95;100.00;101646.06;2072189;28;20181;-70
2022/07/14 01:05:34;;;;;;;4.40;1.00;;;;;;;19.96;100.00;101668.06;2071268;28;20499;-70
2022/07/14 01:06:34;;;;;;;2.63;1.13;;;;;;;19.87;100.00;101642.00;2064713;28;20217;-70
2022/07/14 01:07:35;;;;;;;4.67;1.10;;;;;;;19.96;100.00;101658.88;2072582;28;20188;-70
2022/07/14 01:08:35;;;;;;;3.83;1.20;;;;;;;19.93;100.00;101654.16;2072407;28;20343;-70
2022/07/14 01:09:36;;;;;;;4.30;1.07;;;;;;;19.92;100.00;101656.22;2072589;28;20198;-70
2022/07/14 01:10:37;;;;;;;4.27;0.80;;;;;;;19.89;100.00;101653.53;2072364;28;20189;-70
2022/07/14 01:11:37;;;;;;;2.43;0.73;;;;;;;19.90;100.00;101652.31;2072038;28;20743;-70
2022/07/14 01:12:38;;;;;;;3.27;0.80;;;;;;;19.82;100.00;101646.25;2072603;28;20276;-70
2022/07/14 01:13:39;;;;;;;2.83;0.73;;;;;;;19.89;100.00;101647.91;2072538;28;20177;-70
2022/07/14 01:14:41;;;;;;;2.30;0.80;;;;;;;19.89;100.00;101651.53;2071068;28;20933;-70
2022/07/14 01:15:41;;;;;;;4.17;1.00;;;;;;;19.89;100.00;101650.72;2065114;28;20185;-70
2022/07/14 01:16:42;;;;;;;2.30;0.80;;;;;;;19.90;100.00;101650.28;2072677;28;20478;-70
2022/07/14 01:17:42;;;;;;;2.70;0.90;;;;;;;19.19;100.00;101547.84;2072210;28;20211;-70
2022/07/14 01:18:43;;;;;;;1.93;0.90;;;;;;;19.88;100.00;101647.16;2072475;28;20192;-70
2022/07/14 01:19:43;;;;;;;2.83;1.47;;;;;;;19.87;100.00;101654.03;2072554;28;20187;-70
2022/07/14 01:20:44;;;;;;;2.40;0.97;;;;;;;19.90;100.00;101653.09;2068591;28;20676;-70
2022/07/14 01:21:44;;;;;;;6.10;1.03;;;;;;;19.86;100.00;101652.47;2063787;28;20194;-70
2022/07/14 01:22:48;;;;;;;2.90;0.90;;;;;;;19.83;100.00;101669.50;2066027;28;20178;-70
2022/07/14 01:23:49;;;;;;;1.73;0.80;;;;;;;19.78;100.00;101642.78;2071370;28;20261;-70
2022/07/14 01:24:49;;;;;;;3.63;1.00;;;;;;;19.77;100.00;101646.88;2064848;28;20410;-70
2022/07/14 01:25:50;;;;;;;3.50;1.20;;;;;;;19.72;100.00;101649.53;2072159;28;20204;-70
2022/07/14 01:26:51;;;;;;;4.80;0.87;;;;;;;19.71;100.00;101648.72;2072535;28;20256;-70
2022/07/14 01:27:52;;;;;;;2.27;1.03;;;;;;;19.69;100.00;101651.25;2071505;28;20209;-70
2022/07/14 01:28:52;;;;;;;3.43;0.90;;;;;;;19.66;100.00;101649.34;2067159;28;20452;-70
2022/07/14 01:29:53;;;;;;;2.03;0.87;;;;;;;19.66;100.00;101651.41;2067780;28;20217;-70
2022/07/14 01:30:54;;;;;;;5.77;1.17;;;;;;;19.63;100.00;101649.53;2072782;28;20256;-70
2022/07/14 01:31:55;;;;;;;2.57;0.90;;;;;;;19.23;100.00;101590.66;2071546;28;20429;-70
2022/07/14 01:32:56;;;;;;;1.13;0.60;;;;;;;19.57;100.00;101643.75;2071261;28;20186;-70
2022/07/14 01:33:56;;;;;;;3.53;0.97;;;;;;;19.58;100.00;101647.34;2072656;28;20196;-70
2022/07/14 01:34:57;;;;;;;14.03;2.40;;;;;;;19.57;100.00;101643.75;2072519;28;20456;-70
2022/07/14 01:35:57;;;;;;;10.63;1.80;;;;;;;19.54;100.00;101643.94;2072472;28;20209;-70
2022/07/14 01:36:58;;;;;;;8.67;1.67;;;;;;;19.53;100.00;101651.56;2072009;28;20294;-70
2022/07/14 01:37:58;;;;;;;15.37;2.50;;;;;;;19.44;100.00;101636.75;2068027;28;20207;-70
2022/07/14 01:38:59;;;;;;;8.13;1.40;;;;;;;19.45;100.00;101647.50;2067727;28;20205;-70
2022/07/14 01:40:00;;;;;;;6.57;1.70;;;;;;;19.44;100.00;101648.00;2070116;28;20179;-70
2022/07/14 01:41:01;;;;;;;7.07;1.60;;;;;;;19.45;100.00;101643.91;2070141;28;20192;-70
2022/07/14 01:42:01;;;;;;;3.93;1.30;;;;;;;19.43;100.00;101644.38;2064528;28;20419;-70
2022/07/14 01:43:02;;;;;;;4.97;1.27;;;;;;;19.38;100.00;101638.59;2072144;28;20247;-70
2022/07/14 01:44:03;;;;;;;8.83;1.27;;;;;;;18.64;100.00;101529.44;2071752;28;20201;-70
2022/07/14 01:45:04;;;;;;;5.93;1.13;;;;;;;19.35;100.00;101648.75;2072142;28;20193;-70
2022/07/14 01:46:05;;;;;;;5.87;1.10;;;;;;;19.35;100.00;101651.56;2072362;28;20929;-70
2022/07/14 01:47:05;;;;;;;4.67;1.10;;;;;;;19.26;100.00;101625.50;2071707;28;20856;-70
2022/07/14 01:48:06;;;;;;;4.73;1.13;;;;;;;18.73;100.00;101554.72;2069488;28;20204;-70
2022/07/14 01:49:07;;;;;;;3.97;1.10;;;;;;;19.31;100.00;101636.91;2066047;28;20216;-70
2022/07/14 01:50:08;;;;;;;6.00;1.20;;;;;;;19.31;100.00;101642.53;2071800;28;20653;-70
2022/07/14 01:51:08;;;;;;;8.70;1.40;;;;;;;19.31;100.00;101648.16;2072869;28;20177;-70
2022/07/14 01:52:09;;;;;;;6.67;1.33;;;;;;;18.50;100.00;101524.44;2072399;28;20192;-70
2022/07/14 01:53:09;;;;;;;6.30;1.60;;;;;;;19.28;100.00;101645.47;2065616;28;20190;-70
2022/07/14 01:54:10;;;;;;;6.17;1.57;;;;;;;19.20;100.00;101642.19;2068886;28;20190;-70
2022/07/14 01:55:10;;;;;;;7.17;1.40;;;;;;;19.25;100.00;101649.97;2072665;28;20647;-70
2022/07/14 01:56:12;;;;;;;4.90;1.20;;;;;;;18.54;100.00;101535.50;2068995;28;20288;-70
2022/07/14 01:57:12;;;;;;;6.43;1.30;;;;;;;19.19;100.00;101648.25;2066454;28;20567;-70
2022/07/14 01:58:13;;;;;;;6.77;1.33;;;;;;;18.89;100.00;101602.16;2071149;28;20424;-70
2022/07/14 01:59:13;;;;;;;6.13;1.17;;;;;;;19.16;100.00;101638.72;2064700;28;20659;-70
2022/07/14 02:00:14;;;;;;;6.13;1.30;;;;;;;19.19;100.00;101660.25;2072779;28;20889;-70
2022/07/14 02:02:34;;;;;;;2.93;1.10;;;;;;;19.14;100.00;101635.59;2064994;28;20176;-70
2022/07/14 02:03:35;;;;;;;5.07;1.63;;;;;;;19.20;100.00;101649.81;2072089;28;20449;-70
2022/07/14 02:04:35;;;;;;;6.27;1.17;;;;;;;19.21;100.00;101651.38;2071204;28;20204;-70
2022/07/14 02:05:36;;;;;;;3.37;1.40;;;;;;;19.20;100.00;101649.81;2072120;28;20718;-70
2022/07/14 02:06:44;;;;;;;2.70;1.00;;;;;;;18.81;100.00;101586.88;2072160;28;20198;-70
2022/07/14 02:07:45;;;;;;;6.47;1.60;;;;;;;19.20;100.00;101653.41;2067245;28;20656;-70
2022/07/14 02:08:45;;;;;;;3.73;0.97;;;;;;;19.21;100.00;101648.56;2067497;28;20900;-70
2022/07/14 02:12:25;;;;;;;6.63;1.30;;;;;;;19.20;100.00;101650.59;2069702;28;20468;-70
2022/07/14 02:13:27;;;;;;;4.30;1.40;;;;;;;19.20;100.00;101659.03;2072068;28;20539;-70
2022/07/14 02:14:29;;;;;;;6.73;1.30;;;;;;;19.18;100.00;101655.13;2070921;28;20477;-70
2022/07/14 02:15:29;;;;;;;4.47;1.53;;;;;;;19.15;100.00;101651.22;2071407;28;20957;-70
2022/07/14 02:16:33;;;;;;;4.23;1.30;;;;;;;19.15;100.00;101651.22;2073783;28;20898;-70
2022/07/14 02:17:33;;;;;;;3.53;1.20;;;;;;;19.21;100.00;101657.00;2073131;28;20181;-70
2022/07/14 02:18:34;;;;;;;6.73;1.37;;;;;;;19.25;100.00;101657.66;2074524;28;20511;-70
2022/07/14 02:19:35;;;;;;;5.67;1.27;;;;;;;19.14;100.00;101660.88;2073704;28;20264;-70
2022/07/14 02:20:36;;;;;;;7.23;1.50;;;;;;;19.24;100.00;101659.66;2073887;28;20188;-70
2022/07/14 02:21:39;;;;;;;5.47;1.80;;;;;;;18.70;100.00;101583.72;2073694;28;20438;-70
2022/07/14 02:22:39;;;;;;;10.00;1.40;;;;;;;19.26;100.00;101660.00;2073816;28;20243;-70
2022/07/14 02:23:40;;;;;;;6.63;1.60;;;;;;;18.81;100.00;101600.91;2073708;28;20502;-70
2022/07/14 02:24:41;;;;;;;7.93;1.33;;;;;;;19.27;100.00;101663.56;2072720;28;20681;-70
2022/07/14 02:25:42;;;;;;;6.53;1.30;;;;;;;19.27;100.00;101660.75;2072167;28;20264;-70
2022/07/14 02:26:42;;;;;;;5.43;1.43;;;;;;;19.26;100.00;101662.03;2073424;28;20467;-70
2022/07/14 02:27:43;;;;;;;8.87;1.90;;;;;;;19.27;100.00;101672.81;2073969;28;20181;-70
2022/07/14 02:28:44;;;;;;;10.07;2.13;;;;;;;19.25;100.00;101671.72;2073014;28;20200;-70
2022/07/14 02:29:44;;;;;;;11.10;2.13;;;;;;;19.26;100.00;101664.84;2072986;28;20224;-70
2022/07/14 02:30:46;;;;;;;8.60;2.30;;;;;;;19.26;100.00;101674.06;2065801;28;20637;-70
2022/07/14 02:31:46;;;;;;;10.33;2.20;;;;;;;19.13;100.00;101655.75;2070711;28;20189;-70
2022/07/14 02:32:47;;;;;;;11.23;2.50;;;;;;;19.17;100.00;101671.19;2073671;28;20455;-70
2022/07/14 02:33:47;;;;;;;12.43;2.30;;;;;;;19.18;100.00;101667.13;2073556;28;20183;-70
2022/07/14 02:34:48;;;;;;;9.20;1.67;;;;;;;19.18;100.00;101664.31;2073747;28;20177;-70
2022/07/14 02:35:48;;;;;;;12.10;1.87;;;;;;;19.18;100.00;101669.19;2073529;28;20579;-70
2022/07/14 02:36:49;;;;;;;7.40;1.70;;;;;;;19.17;100.00;101667.59;2073602;28;20253;-70
2022/07/14 02:37:49;;;;;;;10.13;1.57;;;;;;;19.12;100.00;101665.41;2073243;28;20247;-70
2022/07/14 02:38:50;;;;;;;9.07;1.37;;;;;;;19.14;100.00;101665.72;2073731;28;20231;-70
2022/07/14 02:39:51;;;;;;;5.77;1.57;;;;;;;19.12;100.00;101663.38;2074018;28;20269;-70
2022/07/14 02:40:52;;;;;;;8.43;1.93;;;;;;;19.12;100.00;101669.00;2073517;28;20651;-70
2022/07/14 02:41:52;;;;;;;5.80;1.40;;;;;;;19.00;100.00;101649.47;2074022;28;20295;-70
2022/07/14 02:42:53;;;;;;;3.97;1.23;;;;;;;18.73;100.00;101604.50;2073509;28;20261;-70
2022/07/14 02:43:53;;;;;;;5.17;1.50;;;;;;;18.93;100.00;101630.13;2072468;28;20183;-70
2022/07/14 02:44:54;;;;;;;3.57;1.20;;;;;;;19.13;100.00;101658.56;2074308;28;20370;-70
2022/07/14 02:45:54;;;;;;;5.20;1.37;;;;;;;19.05;100.00;101651.66;2073928;28;20596;-70
2022/07/14 02:46:55;;;;;;;6.17;1.20;;;;;;;19.12;100.00;101668.22;2072691;28;20904;-70
2022/07/14 02:47:55;;;;;;;7.67;1.23;;;;;;;19.11;100.00;101658.22;2073293;28;20235;-70
2022/07/14 02:48:56;;;;;;;3.90;1.33;;;;;;;19.10;100.00;101656.66;2073601;28;20188;-70
2022/07/14 02:49:56;;;;;;;8.40;1.30;;;;;;;19.12;100.00;101668.22;2073424;28;20244;-70
2022/07/14 02:50:59;;;;;;;5.83;1.40;;;;;;;19.06;100.00;101659.63;2071146;28;20706;-70
2022/07/14 02:52:00;;;;;;;5.00;1.40;;;;;;;19.05;100.00;101660.88;2067469;28;20195;-70
2022/07/14 02:53:00;;;;;;;4.13;1.27;;;;;;;19.10;100.00;101671.50;2073656;28;20483;-70
2022/07/14 02:54:01;;;;;;;4.20;1.20;;;;;;;19.06;100.00;101667.28;2073801;28;20185;-70
2022/07/14 02:55:01;;;;;;;13.03;2.67;;;;;;;18.27;100.00;101542.59;2073055;28;20681;-70
2022/07/14 02:56:06;;;;;;;16.17;2.83;;;;;;;18.96;100.00;101654.44;2073225;28;20190;-70
2022/07/14 02:57:06;;;;;;;15.30;3.30;;;;;;;18.94;100.00;101654.91;2073035;28;20224;-70
2022/07/14 02:58:07;;;;;;;4.90;1.53;;;;;;;19.05;100.00;101674.94;2072397;28;20447;-70
2022/07/14 02:59:07;;;;;;;4.60;1.10;;;;;;;19.05;100.00;101666.50;2060959;28;20195;-70
2022/07/14 03:00:09;;;;;;;9.70;2.10;;;;;;;19.06;100.00;101670.06;2067604;28;20234;-70
2022/07/14 03:01:09;;;;;;;8.33;1.80;;;;;;;19.08;100.00;101678.84;2073518;28;20611;-70
2022/07/14 03:02:10;;;;;;;6.47;1.93;;;;;;;18.19;100.00;101540.53;2072680;28;20518;-70
2022/07/14 03:03:10;;;;;;;8.90;2.10;;;;;;;19.11;100.00;101675.09;2073468;28;20193;-70
2022/07/14 03:04:11;;;;;;;5.03;1.53;;;;;;;19.09;100.00;101678.34;2072814;28;20191;-70
2022/07/14 03:05:11;;;;;;;7.10;1.90;;;;;;;19.05;100.00;101674.94;2073657;28;20192;-70
2022/07/14 03:06:18;;;;;;;6.77;1.70;;;;;;;18.61;100.00;101606.16;2073788;28;20200;-70
2022/07/14 03:07:18;;;;;;;9.00;1.70;;;;;;;18.95;100.00;101672.56;2073023;28;20216;-70
2022/07/14 03:08:19;;;;;;;6.73;1.80;;;;;;;18.27;100.00;101551.00;2072745;28;20544;-70
2022/07/14 03:09:19;;;;;;;6.13;1.10;;;;;;;19.04;100.00;101669.78;2073453;28;20279;-70
2022/07/14 03:10:20;;;;;;;5.87;1.57;;;;;;;19.06;100.00;101676.50;2073365;28;20181;-70
2022/07/14 03:11:21;;;;;;;6.63;1.27;;;;;;;18.93;100.00;101658.22;2073679;28;20175;-70
2022/07/14 03:12:21;;;;;;;7.57;1.60;;;;;;;19.06;100.00;101675.69;2073348;28;20212;-70
2022/07/14 03:13:22;;;;;;;6.10;1.20;;;;;;;19.04;100.00;101676.16;2073989;28;20211;-70
2022/07/14 03:14:23;;;;;;;8.87;1.97;;;;;;;19.06;100.00;101673.69;2073018;28;20212;-70
2022/07/14 03:15:23;;;;;;;7.73;1.50;;;;;;;18.45;100.00;101577.56;2073684;28;20223;-70
2022/07/14 03:16:23;;;;;;;7.97;2.00;;;;;;;19.05;100.00;101677.75;2073386;28;20188;-70
2022/07/14 03:17:24;;;;;;;8.00;1.40;;;;;;;18.75;100.00;101627.25;2072151;28;20197;-70
2022/07/14 03:18:25;;;;;;;7.23;1.40;;;;;;;18.13;100.00;101526.31;2070014;28;20227;-70
2022/07/14 03:19:25;;;;;;;11.03;1.93;;;;;;;18.98;100.00;101647.13;2066569;28;20181;-70
2022/07/14 03:20:26;;;;;;;8.97;2.00;;;;;;;19.16;100.00;101680.88;2072569;28;20216;-70
2022/07/14 03:21:26;;;;;;;8.80;1.60;;;;;;;19.19;100.00;101679.94;2065870;28;20185;-70
2022/07/14 03:22:27;;;;;;;6.00;1.40;;;;;;;19.05;100.00;101651.66;2073165;28;20256;-70
2022/07/14 03:23:27;;;;;;;3.47;1.27;;;;;;;18.87;100.00;101643.19;2066807;28;20194;-70
2022/07/14 03:24:28;;;;;;;7.10;1.30;;;;;;;18.52;100.00;101586.50;2070034;28;20187;-70
2022/07/14 03:25:28;;;;;;;6.53;1.50;;;;;;;19.21;100.00;101688.69;2073270;28;20245;-70
2022/07/14 03:26:29;;;;;;;11.20;1.80;;;;;;;19.20;100.00;101684.31;2073121;28;20603;-70
2022/07/14 03:27:29;;;;;;;8.63;2.37;;;;;;;18.92;100.00;101646.19;2072646;28;20182;-70
2022/07/14 03:28:30;;;;;;;14.40;2.50;;;;;;;19.27;100.00;101694.50;2073449;28;20184;-70
2022/07/14 03:29:30;;;;;;;9.90;1.80;;;;;;;18.45;100.00;101557.94;2072409;28;20791;-70
2022/07/14 03:30:31;;;;;;;9.37;1.97;;;;;;;19.32;100.00;101703.09;2065667;28;20187;-70
2022/07/14 03:31:31;;;;;;;12.83;2.30;;;;;;;18.33;100.00;101539.19;2072514;28;20676;-70
2022/07/14 03:32:32;;;;;;;6.83;1.67;;;;;;;19.06;100.00;101661.66;2072883;28;20215;-70
2022/07/14 03:33:33;;;;;;;4.90;1.23;;;;;;;18.99;100.00;101643.06;2073084;28;20196;-70
2022/07/14 03:34:34;;;;;;;4.80;1.60;;;;;;;19.34;100.00;101697.03;2069116;28;20189;-70
2022/07/14 03:35:39;;;;;;;6.77;2.27;;;;;;;19.37;100.00;101698.88;2068097;28;20459;-70
2022/07/14 03:36:39;;;;;;;14.57;2.37;;;;;;;19.26;100.00;101682.50;2073210;28;20181;-70
2022/07/14 03:37:40;;;;;;;7.63;1.90;;;;;;;19.00;100.00;101641.84;2072577;28;20478;-70
2022/07/14 03:38:41;;;;;;;9.70;2.30;;;;;;;19.32;100.00;101677.00;2073076;28;20174;-70
2022/07/14 03:39:41;;;;;;;8.53;1.80;;;;;;;19.17;100.00;101647.94;2074067;28;20176;-70
2022/07/14 03:40:42;;;;;;;10.23;1.60;;;;;;;19.50;100.00;101705.16;2072219;28;20560;-70
2022/07/14 03:41:42;;;;;;;6.37;1.50;;;;;;;18.61;100.00;101566.06;2073300;28;20193;-70
2022/07/14 03:42:44;;;;;;;4.40;1.80;;;;;;;19.54;100.00;101711.41;2073104;28;20253;-70
2022/07/14 03:43:44;;;;;;;3.43;1.40;;;;;;;19.36;100.00;101703.75;2073205;28;20197;-70
2022/07/14 03:44:45;;;;;;;6.23;1.73;;;;;;;19.55;100.00;101702.47;2072834;28;20486;-70
2022/07/14 03:45:45;;;;;;;5.27;1.63;;;;;;;19.61;100.00;101711.09;2073382;28;20174;-70
2022/07/14 03:46:46;;;;;;;5.77;1.67;;;;;;;19.63;100.00;101717.81;2073080;28;20178;-70
2022/07/14 03:47:46;;;;;;;4.50;1.60;;;;;;;19.66;100.00;101719.66;2073332;28;20177;-70
2022/07/14 03:48:47;;;;;;;3.63;1.43;;;;;;;19.66;100.00;101725.28;2073500;28;20189;-70
2022/07/14 03:49:47;;;;;;;7.03;2.00;;;;;;;19.70;100.00;101723.09;2072929;28;20231;-70
2022/07/14 03:50:48;;;;;;;10.77;1.83;;;;;;;19.67;100.00;101712.00;2071905;28;20208;-70
2022/07/14 03:51:49;;;;;;;7.13;1.50;;;;;;;19.75;100.00;101718.91;2064440;28;20185;-70
2022/07/14 03:52:50;;;;;;;5.37;1.60;;;;;;;19.77;100.00;101711.56;2068337;28;20194;-70
2022/07/14 03:53:50;;;;;;;8.97;1.77;;;;;;;19.67;100.00;101695.94;2072794;28;20551;-70
2022/07/14 03:54:51;;;;;;;8.00;1.80;;;;;;;19.75;100.00;101699.97;2072930;28;20174;-70
2022/07/14 03:55:51;;;;;;;7.10;1.40;;;;;;;19.84;100.00;101716.06;2072888;28;20607;-70
2022/07/14 03:56:52;;;;;;;5.00;1.80;;;;;;;19.87;100.00;101713.13;2073745;28;20181;-70
2022/07/14 03:57:53;;;;;;;6.83;2.20;;;;;;;19.87;100.00;101713.13;2073013;28;20197;-70
2022/07/14 03:58:53;;;;;;;2.23;1.20;;;;;;;19.94;100.00;101712.00;2066605;28;20950;-70
2022/07/14 03:59:54;;;;;;;7.20;1.73;;;;;;;19.97;100.00;101722.31;2065008;28;20332;-70
2022/07/14 04:00:54;;;;;;;5.53;1.60;;;;;;;19.95;100.00;101713.59;2069307;28;20193;-70
2022/07/14 04:01:55;;;;;;;7.87;1.83;;;;;;;19.96;100.00;101710.28;2068928;28;20197;-70
2022/07/14 04:02:55;;;;;;;4.80;1.60;;;;;;;19.90;100.00;101698.09;2064949;28;20253;-70
2022/07/14 04:03:56;;;;;;;5.03;1.80;;;;;;;19.88;100.00;101694.19;2065648;28;20180;-70
2022/07/14 04:04:56;;;;;;;4.07;1.40;;;;;;;20.08;100.00;101717.00;2073190;28;20185;-70
2022/07/14 04:05:57;;;;;;;5.33;1.60;;;;;;;20.00;100.00;101702.47;2073018;28;20679;-70
2022/07/14 04:06:57;;;;;;;5.93;1.63;;;;;;;20.13;100.00;101714.34;2071956;28;20198;-70
2022/07/14 04:07:58;;;;;;;7.23;1.97;;;;;;;19.39;100.00;101601.59;2073027;28;20193;-70
2022/07/14 04:09:00;;;;;;;6.63;1.83;;;;;;;20.17;100.00;101714.97;2073209;28;20299;-70
2022/07/14 04:10:01;;;;;;;6.47;1.80;;;;;;;20.18;100.00;101713.72;2072926;28;20591;-70
2022/07/14 04:11:02;;;;;;;5.50;1.83;;;;;;;20.19;100.00;101718.09;2073044;28;20505;-70
2022/07/14 04:12:03;;;;;;;6.60;2.10;;;;;;;20.25;100.00;101719.00;2072029;28;20244;-70
2022/07/14 04:13:04;;;;;;;2.90;1.60;;;;;;;20.27;100.00;101719.31;2071510;28;20945;-70
2022/07/14 04:14:04;;;;;;;5.10;2.17;;;;;;;20.30;100.00;101714.78;2070915;28;20190;-70
2022/07/14 04:15:05;;;;;;;7.37;2.20;;;;;;;20.29;100.00;101711.19;2072794;28;20196;-70
2022/07/14 04:16:06;;;;;;;8.90;2.20;;;;;;;20.36;100.00;101722.13;2072509;28;20567;-70
2022/07/14 04:17:07;;;;;;;9.63;2.10;;;;;;;20.32;100.00;101709.47;2071438;28;20231;-70
2022/07/14 04:18:08;;;;;;;5.47;2.27;;;;;;;20.37;100.00;101711.63;2068089;28;20441;-70
2022/07/14 04:19:08;;;;;;;9.37;2.30;;;;;;;20.44;100.00;101716.94;2072372;28;20197;-70
2022/07/14 04:20:09;;;;;;;9.37;2.20;;;;;;;20.46;100.00;101722.88;2072083;28;20444;-70
2022/07/14 04:21:10;;;;;;;4.60;2.30;;;;;;;20.42;100.00;101725.84;2072061;28;20184;-70
2022/07/14 04:22:11;;;;;;;10.33;2.77;;;;;;;20.50;100.00;101721.44;2072126;28;20447;-70
2022/07/14 04:23:12;;;;;;;6.60;1.80;;;;;;;20.53;100.00;101723.31;2064509;28;20186;-70
2022/07/14 04:24:13;;;;;;;8.30;1.83;;;;;;;20.49;100.00;101708.63;2072773;28;20527;-70
2022/07/14 04:25:14;;;;;;;5.37;1.40;;;;;;;20.60;100.00;101727.81;2066831;28;20280;-70
2022/07/14 04:26:14;;;;;;;5.33;1.10;;;;;;;20.63;100.00;101722.00;2066507;28;20224;-70
2022/07/14 04:27:15;;;;;;;3.43;1.50;;;;;;;20.70;100.00;101720.91;2071322;28;21063;-70
2022/07/14 04:28:16;;;;;;;4.47;1.63;;;;;;;20.10;100.00;101628.06;2071409;28;20220;-70
2022/07/14 04:29:16;;;;;;;4.93;1.70;;;;;;;20.74;100.00;101710.25;2071200;28;20199;-70
2022/07/14 04:30:17;;;;;;;5.10;1.80;;;;;;;20.82;100.00;101720.69;2072294;28;20542;-70
2022/07/14 04:31:17;;;;;;;6.70;2.00;;;;;;;20.89;100.00;101717.56;2072087;28;20184;-70
2022/07/14 04:32:18;;;;;;;5.23;1.87;;;;;;;20.55;100.00;101652.44;2072875;28;20181;-70
2022/07/14 04:33:20;;;;;;;5.57;1.70;;;;;;;20.20;100.00;101597.84;2071747;28;20284;-70
2022/07/14 04:34:21;;;;;;;6.13;1.90;;;;;;;20.97;100.00;101712.34;2070210;28;20193;-70
2022/07/14 04:35:21;;;;;;;6.43;1.73;;;;;;;21.01;100.00;101713.75;2071880;28;20571;-70
2022/07/14 04:36:23;;;;;;;3.60;1.20;;;;;;;20.86;100.00;101686.69;2072164;28;20208;-70
2022/07/14 04:37:23;;;;;;;5.50;1.63;;;;;;;21.18;100.00;101728.22;2071292;28;20543;-70
2022/07/14 04:38:25;;;;;;;4.97;1.60;;;;;;;21.00;100.00;101692.47;2070360;28;20520;-71
2022/07/14 04:39:25;;;;;;;5.43;1.53;;;;;;;21.25;100.00;101723.00;2071874;28;20190;-70
2022/07/14 04:40:26;;;;;;;3.90;1.00;;;;;;;21.23;100.00;101719.88;2067349;28;20821;-71
2022/07/14 04:41:26;;;;;;;3.20;1.23;;;;;;;21.30;100.00;101727.97;2072941;28;20216;-70
2022/07/14 04:42:27;;;;;;;3.43;1.40;;;;;;;21.34;100.00;101728.56;2070662;28;20193;-70
2022/07/14 04:43:27;;;;;;;4.83;1.60;;;;;;;21.34;100.00;101716.50;2072509;28;20186;-70